Time;durP1;ratioP1;P1;durP2;ratioP2;P2;SDS_P1;SDS_P2;PMS_P1;PMS_P2;Temp;Humidity;BMP_temperature;BMP_pressure;BME280_temperature;BME280_humidity;BME280_pressure;Samples;Min_cycle;Max_cycle;Signal;HPM_P1;HPM_P2
2022/05/25 00:02:20;;;;;;;20.27;14.90;;;;;;;;;;5053419;28;20052;-59
2022/05/25 00:04:46;;;;;;;17.83;13.77;;;;;;;;;;5052914;28;20515;-59
2022/05/25 00:07:13;;;;;;;21.43;14.50;;;;;;;;;;5051075;28;20529;-59
2022/05/25 00:09:39;;;;;;;15.37;13.37;;;;;;;;;;5051473;28;20479;-59
2022/05/25 00:12:06;;;;;;;17.20;12.80;;;;;;;;;;5069095;28;20049;-59
2022/05/25 00:14:32;;;;;;;16.73;13.77;;;;;;;;;;5059217;28;21414;-59
2022/05/25 00:16:58;;;;;;;17.63;14.37;;;;;;;;;;5052752;28;20041;-59
2022/05/25 00:22:09;;;;;;;16.63;12.27;;;;;;;;;;5053971;28;20396;-59
2022/05/25 00:24:36;;;;;;;20.90;15.10;;;;;;;;;;5065319;28;20045;-59
2022/05/25 00:27:02;;;;;;;23.10;15.87;;;;;;;;;;5072389;28;20088;-59
2022/05/25 00:29:28;;;;;;;22.10;16.93;;;;;;;;;;5072216;28;20044;-59
2022/05/25 00:31:55;;;;;;;22.77;16.50;;;;;;;;;;5072251;28;20048;-59
2022/05/25 00:34:21;;;;;;;20.20;16.13;;;;;;;;;;5065355;28;20067;-60
2022/05/25 00:36:47;;;;;;;23.70;17.40;;;;;;;;;;5052231;28;20063;-59
2022/05/25 00:39:13;;;;;;;22.10;17.50;;;;;;;;;;5061364;28;20075;-59
2022/05/25 00:41:39;;;;;;;21.57;16.17;;;;;;;;;;5072329;28;20117;-59
2022/05/25 00:44:05;;;;;;;21.83;16.83;;;;;;;;;;5071058;28;20055;-59
2022/05/25 00:46:32;;;;;;;21.40;16.93;;;;;;;;;;5072037;28;20094;-59
2022/05/25 00:49:08;;;;;;;21.40;15.80;;;;;;;;;;5065961;28;20457;-59
2022/05/25 00:51:39;;;;;;;23.87;15.57;;;;;;;;;;5069493;28;20049;-59
2022/05/25 00:54:07;;;;;;;27.80;19.97;;;;;;;;;;5053855;28;20048;-59
2022/05/25 00:56:34;;;;;;;25.13;20.00;;;;;;;;;;5051862;28;20483;-59
2022/05/25 00:59:03;;;;;;;34.47;24.17;;;;;;;;;;5051823;28;20048;-59
2022/05/25 01:01:29;;;;;;;33.93;25.10;;;;;;;;;;5051659;28;20079;-59
2022/05/25 01:03:55;;;;;;;37.47;25.37;;;;;;;;;;5051645;28;20384;-59
2022/05/25 01:06:40;;;;;;;43.53;26.40;;;;;;;;;;5051711;28;20560;-59
2022/05/25 01:09:25;;;;;;;25.40;20.43;;;;;;;;;;5051749;28;20056;-59
2022/05/25 01:11:53;;;;;;;33.10;24.30;;;;;;;;;;5051553;28;20052;-59
2022/05/25 01:14:38;;;;;;;29.27;22.07;;;;;;;;;;5051942;28;20056;-59
2022/05/25 01:17:25;;;;;;;36.40;24.90;;;;;;;;;;5052152;28;20088;-60
2022/05/25 01:19:59;;;;;;;32.33;22.73;;;;;;;;;;5051231;28;20080;-59
2022/05/25 01:22:31;;;;;;;39.30;23.17;;;;;;;;;;5051350;28;20040;-59
2022/05/25 01:25:06;;;;;;;28.07;19.47;;;;;;;;;;5057644;28;20056;-59
2022/05/25 01:27:37;;;;;;;35.57;23.33;;;;;;;;;;5050991;28;20075;-59
2022/05/25 01:30:17;;;;;;;34.90;22.43;;;;;;;;;;5051586;28;20049;-59
2022/05/25 01:33:00;;;;;;;32.53;22.07;;;;;;;;;;5051142;28;20057;-59
2022/05/25 01:35:33;;;;;;;29.27;19.73;;;;;;;;;;5051333;28;20037;-59
2022/05/25 01:38:03;;;;;;;;;;;;;;;;;;5051549;28;20048;-59
2022/05/25 01:40:38;;;;;;;30.93;21.70;;;;;;;;;;5067976;28;19982;-59
2022/05/25 01:43:09;;;;;;;34.40;22.03;;;;;;;;;;5071038;28;20410;-59
2022/05/25 01:45:40;;;;;;;29.33;20.13;;;;;;;;;;5054172;28;20409;-59
2022/05/25 01:48:07;;;;;;;33.50;21.90;;;;;;;;;;5050799;28;20105;-59
2022/05/25 01:50:38;;;;;;;35.10;23.03;;;;;;;;;;5050751;28;20070;-59
2022/05/25 01:53:07;;;;;;;32.40;21.80;;;;;;;;;;5056686;28;20379;-60
2022/05/25 01:55:35;;;;;;;28.60;21.40;;;;;;;;;;5070419;28;20055;-60
2022/05/25 01:58:05;;;;;;;36.50;23.53;;;;;;;;;;5070648;28;20044;-60
2022/05/25 02:00:34;;;;;;;35.33;23.00;;;;;;;;;;5070920;28;20045;-60
2022/05/25 02:06:08;;;;;;;39.43;25.20;;;;;;;;;;5058187;28;20045;-60
2022/05/25 02:08:47;;;;;;;37.90;24.67;;;;;;;;;;5053842;28;20057;-60
2022/05/25 02:11:22;;;;;;;41.83;25.57;;;;;;;;;;5053552;28;20190;-60
2022/05/25 02:14:07;;;;;;;48.57;26.70;;;;;;;;;;5050759;28;20079;-60
2022/05/25 02:16:55;;;;;;;40.03;24.20;;;;;;;;;;5050201;28;20087;-60
2022/05/25 02:19:25;;;;;;;46.17;27.23;;;;;;;;;;5050280;28;20076;-60
2022/05/25 02:22:11;;;;;;;54.97;29.93;;;;;;;;;;5050516;28;20878;-59
2022/05/25 02:24:37;;;;;;;43.53;26.50;;;;;;;;;;5058416;28;20051;-59
2022/05/25 02:27:06;;;;;;;39.10;25.07;;;;;;;;;;5060319;28;20041;-60
2022/05/25 02:29:41;;;;;;;36.83;24.27;;;;;;;;;;5058829;28;20045;-60
2022/05/25 02:32:12;;;;;;;40.73;26.33;;;;;;;;;;5058393;28;20399;-59
2022/05/25 02:34:39;;;;;;;52.33;28.13;;;;;;;;;;5057614;28;20418;-60
2022/05/25 02:37:05;;;;;;;41.03;27.17;;;;;;;;;;5059926;28;20036;-60
2022/05/25 02:39:31;;;;;;;40.33;26.83;;;;;;;;;;5058461;28;20185;-60
2022/05/25 02:41:58;;;;;;;49.60;29.20;;;;;;;;;;5058035;28;20081;-59
2022/05/25 02:44:24;;;;;;;36.87;25.50;;;;;;;;;;5058706;28;20044;-60
2022/05/25 02:46:50;;;;;;;59.40;31.50;;;;;;;;;;5058395;28;20041;-59
2022/05/25 02:49:17;;;;;;;40.80;26.47;;;;;;;;;;5062760;28;20040;-59
2022/05/25 02:51:43;;;;;;;53.57;31.13;;;;;;;;;;5056545;28;20044;-59
2022/05/25 02:54:09;;;;;;;62.90;34.83;;;;;;;;;;5049960;28;20048;-59
2022/05/25 02:56:36;;;;;;;48.60;29.40;;;;;;;;;;5049985;28;20157;-60
2022/05/25 02:59:02;;;;;;;45.43;27.93;;;;;;;;;;5049832;28;20506;-60
2022/05/25 03:01:28;;;;;;;50.07;29.23;;;;;;;;;;5049501;28;20049;-59
2022/05/25 03:03:55;;;;;;;42.47;27.17;;;;;;;;;;5049271;28;20053;-60
2022/05/25 03:06:21;;;;;;;57.50;29.27;;;;;;;;;;5049347;28;20045;-59
2022/05/25 03:08:47;;;;;;;42.60;27.00;;;;;;;;;;5048703;28;20049;-60
2022/05/25 03:11:13;;;;;;;45.10;29.83;;;;;;;;;;5049684;28;20045;-60
2022/05/25 03:13:41;;;;;;;47.23;28.83;;;;;;;;;;5049439;28;20412;-60
2022/05/25 03:16:08;;;;;;;54.70;31.43;;;;;;;;;;5049231;28;20484;-59
2022/05/25 03:18:34;;;;;;;64.63;32.73;;;;;;;;;;5052974;28;20041;-60
2022/05/25 03:21:03;;;;;;;50.73;29.77;;;;;;;;;;5055418;28;20055;-60
2022/05/25 03:23:29;;;;;;;60.77;34.10;;;;;;;;;;5053408;28;20044;-60
2022/05/25 03:25:55;;;;;;;47.27;29.80;;;;;;;;;;5052459;28;20131;-60
2022/05/25 03:28:21;;;;;;;55.13;31.00;;;;;;;;;;5053644;28;20107;-60
2022/05/25 03:30:48;;;;;;;49.37;29.50;;;;;;;;;;5053202;28;20056;-59
2022/05/25 03:33:14;;;;;;;61.30;32.20;;;;;;;;;;5058571;28;20037;-60
2022/05/25 03:35:40;;;;;;;65.30;34.17;;;;;;;;;;5073024;28;20410;-59
2022/05/25 03:38:06;;;;;;;61.33;33.40;;;;;;;;;;5073087;28;20482;-60
2022/05/25 03:40:33;;;;;;;50.03;30.20;;;;;;;;;;5072199;28;20503;-59
2022/05/25 03:42:59;;;;;;;55.37;30.40;;;;;;;;;;5071536;28;20044;-60
2022/05/25 03:45:25;;;;;;;56.23;30.93;;;;;;;;;;5070789;28;20701;-59
2022/05/25 03:47:52;;;;;;;67.77;34.20;;;;;;;;;;5072749;28;20719;-59
2022/05/25 03:50:18;;;;;;;59.73;32.00;;;;;;;;;;5072353;28;20128;-60
2022/05/25 03:52:45;;;;;;;73.50;35.17;;;;;;;;;;5072861;28;20045;-60
2022/05/25 03:55:11;;;;;;;60.97;32.67;;;;;;;;;;5070384;28;20132;-59
2022/05/25 03:57:37;;;;;;;58.50;32.30;;;;;;;;;;5072623;28;20039;-60
2022/05/25 04:00:04;;;;;;;72.97;35.47;;;;;;;;;;5072522;28;20059;-60
2022/05/25 04:02:31;;;;;;;55.30;31.70;;;;;;;;;;5072343;28;20090;-60
2022/05/25 04:05:09;;;;;;;51.40;31.80;;;;;;;;;;5065640;28;20107;-60
2022/05/25 04:07:40;;;;;;;66.80;35.57;;;;;;;;;;5052204;28;21175;-60
2022/05/25 04:10:07;;;;;;;57.03;32.33;;;;;;;;;;5052484;28;20090;-60
2022/05/25 04:12:34;;;;;;;51.37;31.83;;;;;;;;;;5051695;28;20045;-60
2022/05/25 04:15:00;;;;;;;72.33;36.60;;;;;;;;;;5051793;28;20041;-60
2022/05/25 04:17:26;;;;;;;66.20;35.33;;;;;;;;;;5051684;28;20457;-60
2022/05/25 04:19:52;;;;;;;63.10;33.33;;;;;;;;;;5059774;28;20528;-60
2022/05/25 04:22:18;;;;;;;53.63;32.00;;;;;;;;;;5072342;28;20041;-60
2022/05/25 04:24:45;;;;;;;52.40;31.20;;;;;;;;;;5072134;28;20502;-60
2022/05/25 04:27:12;;;;;;;56.30;31.63;;;;;;;;;;5071905;28;20052;-60
2022/05/25 04:29:39;;;;;;;48.60;31.53;;;;;;;;;;5070787;28;20541;-60
2022/05/25 04:32:06;;;;;;;51.50;31.20;;;;;;;;;;5060157;28;20090;-60
2022/05/25 04:34:32;;;;;;;67.27;33.20;;;;;;;;;;5058349;28;20036;-60
2022/05/25 04:37:48;;;;;;;48.33;29.63;;;;;;;;;;5071863;28;20044;-59
2022/05/25 04:39:44;;;;;;;44.97;28.87;;;;;;;;;;5071579;28;20052;-60
2022/05/25 04:42:10;;;;;;;56.40;31.30;;;;;;;;;;5069973;28;20052;-59
2022/05/25 04:44:36;;;;;;;54.90;31.30;;;;;;;;;;5071496;28;20558;-60
2022/05/25 04:47:03;;;;;;;48.13;28.97;;;;;;;;;;5071501;28;20041;-59
2022/05/25 04:49:29;;;;;;;42.70;28.00;;;;;;;;;;5071651;28;20049;-59
2022/05/25 04:51:55;;;;;;;50.10;30.10;;;;;;;;;;5070913;28;20051;-60
2022/05/25 04:54:21;;;;;;;47.97;29.13;;;;;;;;;;5071373;28;20047;-60
2022/05/25 04:59:31;;;;;;;42.70;25.93;;;;;;;;;;5071303;28;20044;-59
2022/05/25 05:01:59;;;;;;;52.47;29.50;;;;;;;;;;5065219;28;20201;-59
2022/05/25 05:04:26;;;;;;;48.37;28.10;;;;;;;;;;5052381;28;20044;-60
2022/05/25 05:06:52;;;;;;;41.77;28.27;;;;;;;;;;5051148;28;20041;-60
2022/05/25 05:09:18;;;;;;;55.90;32.30;;;;;;;;;;5051153;28;20041;-60
2022/05/25 05:11:45;;;;;;;46.43;26.50;;;;;;;;;;5051501;28;20045;-60
2022/05/25 05:14:11;;;;;;;52.47;30.97;;;;;;;;;;5050043;28;20049;-60
2022/05/25 05:16:37;;;;;;;40.60;25.17;;;;;;;;;;5051267;28;20049;-60
2022/05/25 05:19:04;;;;;;;51.80;29.37;;;;;;;;;;5055039;28;20051;-60
2022/05/25 05:21:30;;;;;;;45.43;27.77;;;;;;;;;;5065216;28;20059;-60
2022/05/25 05:23:56;;;;;;;46.70;28.37;;;;;;;;;;5050434;28;20091;-60
2022/05/25 05:26:22;;;;;;;43.97;27.47;;;;;;;;;;5051178;28;20131;-60
2022/05/25 05:28:49;;;;;;;43.40;27.83;;;;;;;;;;5054211;28;20135;-60
2022/05/25 05:31:15;;;;;;;46.07;29.50;;;;;;;;;;5059652;28;20123;-59
2022/05/25 05:33:41;;;;;;;41.40;27.33;;;;;;;;;;5051235;28;20410;-60
2022/05/25 05:36:28;;;;;;;43.57;26.33;;;;;;;;;;5069201;28;20085;-59
2022/05/25 05:38:59;;;;;;;41.33;25.70;;;;;;;;;;5053600;28;20533;-60
2022/05/25 05:41:26;;;;;;;52.80;29.97;;;;;;;;;;5050670;28;20055;-60
2022/05/25 05:43:52;;;;;;;44.70;27.07;;;;;;;;;;5050567;28;20049;-60
2022/05/25 05:46:19;;;;;;;43.33;25.67;;;;;;;;;;5050657;28;20044;-60
2022/05/25 05:48:45;;;;;;;41.07;26.47;;;;;;;;;;5050388;28;20514;-60
2022/05/25 05:51:11;;;;;;;36.93;24.77;;;;;;;;;;5050417;28;20423;-59
2022/05/25 05:53:38;;;;;;;48.83;28.13;;;;;;;;;;5049958;28;20103;-59
2022/05/25 05:56:04;;;;;;;40.20;27.27;;;;;;;;;;5058411;28;20088;-59
2022/05/25 05:58:30;;;;;;;46.23;26.87;;;;;;;;;;5053587;28;20046;-59
2022/05/25 06:00:56;;;;;;;40.67;26.87;;;;;;;;;;5063901;28;20514;-59
2022/05/25 06:03:22;;;;;;;37.10;25.80;;;;;;;;;;5052113;28;20037;-59
2022/05/25 06:05:48;;;;;;;40.47;24.47;;;;;;;;;;5049636;28;20052;-59
2022/05/25 06:08:17;;;;;;;35.27;24.07;;;;;;;;;;5066403;28;20474;-59
2022/05/25 06:10:44;;;;;;;35.97;24.90;;;;;;;;;;5069676;28;20044;-59
2022/05/25 06:13:10;;;;;;;40.13;23.23;;;;;;;;;;5069990;28;20119;-59
2022/05/25 06:21:06;;;;;;;35.70;23.70;;;;;;;;;;5070021;28;20045;-59
2022/05/25 06:23:32;;;;;;;34.33;23.87;;;;;;;;;;5049865;28;20084;-60
2022/05/25 06:25:58;;;;;;;32.80;22.57;;;;;;;;;;5049922;28;20462;-60
2022/05/25 06:28:24;;;;;;;31.93;21.83;;;;;;;;;;5053348;28;20662;-60
2022/05/25 06:30:50;;;;;;;31.83;19.53;;;;;;;;;;5069878;28;20080;-59
2022/05/25 06:33:16;;;;;;;29.03;18.43;;;;;;;;;;5068945;28;20417;-59
2022/05/25 06:35:42;;;;;;;30.70;19.97;;;;;;;;;;5069627;28;20222;-59
2022/05/25 06:38:08;;;;;;;29.07;17.73;;;;;;;;;;5068371;28;20048;-59
2022/05/25 06:40:34;;;;;;;25.43;17.57;;;;;;;;;;5069510;28;20514;-59
2022/05/25 06:43:00;;;;;;;28.30;17.57;;;;;;;;;;5069396;28;20473;-59
2022/05/25 06:45:26;;;;;;;27.20;17.10;;;;;;;;;;5069680;28;20052;-59
2022/05/25 06:47:52;;;;;;;25.53;16.10;;;;;;;;;;5069238;28;20044;-59
2022/05/25 06:50:19;;;;;;;19.57;15.03;;;;;;;;;;5058112;28;20438;-59
2022/05/25 06:52:45;;;;;;;18.53;14.80;;;;;;;;;;5047545;28;20345;-59
2022/05/25 06:55:11;;;;;;;21.10;13.67;;;;;;;;;;5050548;28;20150;-59
2022/05/25 06:57:37;;;;;;;24.40;13.80;;;;;;;;;;5068387;28;20555;-59
2022/05/25 07:00:04;;;;;;;19.67;14.57;;;;;;;;;;5069201;28;20130;-59
2022/05/25 07:02:30;;;;;;;20.03;13.23;;;;;;;;;;5069643;28;20456;-59
2022/05/25 07:04:56;;;;;;;17.00;12.10;;;;;;;;;;5058230;28;20124;-60
2022/05/25 07:07:22;;;;;;;15.07;11.70;;;;;;;;;;5057664;28;20040;-60
2022/05/25 07:09:48;;;;;;;16.00;11.13;;;;;;;;;;5069470;28;20044;-60
2022/05/25 07:12:14;;;;;;;17.23;11.80;;;;;;;;;;5065618;28;20040;-60
2022/05/25 07:14:40;;;;;;;15.77;12.13;;;;;;;;;;5055542;28;20035;-60
2022/05/25 07:17:06;;;;;;;16.73;10.93;;;;;;;;;;5057840;28;20071;-60
2022/05/25 07:19:33;;;;;;;14.00;10.27;;;;;;;;;;5063219;28;20108;-59
2022/05/25 07:21:59;;;;;;;18.47;9.97;;;;;;;;;;5060788;28;20261;-60
2022/05/25 07:24:25;;;;;;;16.73;9.97;;;;;;;;;;5067679;28;20544;-59
2022/05/25 07:26:51;;;;;;;15.90;10.40;;;;;;;;;;5054731;28;20049;-60
2022/05/25 07:29:17;;;;;;;16.07;9.53;;;;;;;;;;5064235;28;20040;-60
2022/05/25 07:31:48;;;;;;;13.10;9.47;;;;;;;;;;5066628;28;20492;-59
2022/05/25 07:34:21;;;;;;;15.57;9.70;;;;;;;;;;5067322;28;20048;-60
2022/05/25 07:36:50;;;;;;;13.30;10.02;;;;;;;;;;5062655;28;20132;-60
2022/05/25 07:39:18;;;;;;;13.33;8.77;;;;;;;;;;5059740;28;20045;-60
2022/05/25 07:41:46;;;;;;;11.73;7.90;;;;;;;;;;5063044;28;20131;-60
2022/05/25 07:44:15;;;;;;;11.90;9.07;;;;;;;;;;5058220;28;20059;-60
2022/05/25 07:46:41;;;;;;;11.17;7.47;;;;;;;;;;5057897;28;20106;-60
2022/05/25 07:49:07;;;;;;;15.33;8.13;;;;;;;;;;5063804;28;20040;-60
2022/05/25 07:51:33;;;;;;;10.10;6.97;;;;;;;;;;5063348;28;20048;-59
2022/05/25 07:54:00;;;;;;;9.27;6.50;;;;;;;;;;5057715;28;20079;-60
2022/05/25 07:56:26;;;;;;;11.97;6.07;;;;;;;;;;5059552;28;20043;-60
2022/05/25 07:58:54;;;;;;;11.83;6.03;;;;;;;;;;5065353;28;20124;-60
2022/05/25 08:05:43;;;;;;;12.03;6.80;;;;;;;;;;5057534;28;20471;-59
2022/05/25 08:06:52;;;;;;;13.73;4.43;;;;;;;;;;5062550;28;20045;-60
2022/05/25 08:09:18;;;;;;;6.77;4.57;;;;;;;;;;5060833;28;20037;-59
2022/05/25 08:11:45;;;;;;;6.97;4.70;;;;;;;;;;5070235;28;20040;-59
2022/05/25 08:14:11;;;;;;;9.87;4.57;;;;;;;;;;5061037;28;20490;-59
2022/05/25 08:16:37;;;;;;;6.93;4.57;;;;;;;;;;5069428;28;20120;-59
2022/05/25 08:19:05;;;;;;;7.17;4.13;;;;;;;;;;5070732;28;20040;-59
2022/05/25 08:21:31;;;;;;;5.83;3.70;;;;;;;;;;5069439;28;20083;-59
2022/05/25 08:23:57;;;;;;;11.50;3.90;;;;;;;;;;5065939;28;20083;-59
2022/05/25 08:26:23;;;;;;;6.00;3.80;;;;;;;;;;5064714;28;20036;-59
2022/05/25 08:28:51;;;;;;;9.00;3.87;;;;;;;;;;5069779;28;20052;-59
2022/05/25 08:31:17;;;;;;;6.23;4.13;;;;;;;;;;5068745;28;20053;-60
2022/05/25 08:33:43;;;;;;;9.37;4.10;;;;;;;;;;5064605;28;20041;-60
2022/05/25 08:36:10;;;;;;;6.70;3.97;;;;;;;;;;5057735;28;20087;-59
2022/05/25 08:38:36;;;;;;;7.40;3.70;;;;;;;;;;5069243;28;20151;-60
2022/05/25 08:41:02;;;;;;;5.37;3.20;;;;;;;;;;5055298;28;20060;-60
2022/05/25 08:43:40;;;;;;;6.10;2.57;;;;;;;;;;5066339;28;20092;-59
2022/05/25 08:46:06;;;;;;;7.87;3.90;;;;;;;;;;5064322;28;20076;-60
2022/05/25 08:48:34;;;;;;;6.87;3.33;;;;;;;;;;5070278;28;20159;-60
2022/05/25 08:51:03;;;;;;;6.27;3.20;;;;;;;;;;5070492;28;20051;-60
2022/05/25 08:53:29;;;;;;;6.90;3.00;;;;;;;;;;5069233;28;20080;-59
2022/05/25 08:55:57;;;;;;;6.53;2.80;;;;;;;;;;5070043;28;20097;-59
2022/05/25 08:58:26;;;;;;;7.23;3.87;;;;;;;;;;5069828;28;20628;-60
2022/05/25 09:00:52;;;;;;;10.37;4.30;;;;;;;;;;5068678;28;20498;-60
2022/05/25 09:03:22;;;;;;;6.40;3.53;;;;;;;;;;5065442;28;20041;-60
2022/05/25 09:05:52;;;;;;;6.43;3.17;;;;;;;;;;5066410;28;20395;-60
2022/05/25 09:08:37;;;;;;;7.60;3.00;;;;;;;;;;5053777;28;20417;-60
2022/05/25 09:11:07;;;;;;;6.77;3.03;;;;;;;;;;5065119;28;20049;-59
2022/05/25 09:13:36;;;;;;;8.17;3.00;;;;;;;;;;5062390;28;20045;-60
2022/05/25 09:16:22;;;;;;;7.40;3.80;;;;;;;;;;5064692;28;20044;-60
2022/05/25 09:19:06;;;;;;;4.53;3.40;;;;;;;;;;5068683;28;20044;-60
2022/05/25 09:21:40;;;;;;;6.50;3.37;;;;;;;;;;5055793;28;20045;-60
2022/05/25 09:24:11;;;;;;;6.77;2.80;;;;;;;;;;5053224;28;20083;-59
2022/05/25 09:26:37;;;;;;;6.00;2.30;;;;;;;;;;5069636;28;20041;-60
2022/05/25 09:29:05;;;;;;;7.93;2.20;;;;;;;;;;5056948;28;20098;-60
2022/05/25 09:31:55;;;;;;;5.60;3.43;;;;;;;;;;5062273;28;20071;-60
2022/05/25 09:34:35;;;;;;;6.63;3.40;;;;;;;;;;5046427;28;20045;-60
2022/05/25 09:37:14;;;;;;;5.93;3.40;;;;;;;;;;5053564;28;20048;-60
2022/05/25 09:39:43;;;;;;;4.70;2.77;;;;;;;;;;5051417;28;20415;-60
2022/05/25 09:42:11;;;;;;;6.83;2.40;;;;;;;;;;5068488;28;20053;-60
2022/05/25 09:44:38;;;;;;;7.63;2.40;;;;;;;;;;5064970;28;20048;-60
2022/05/25 09:47:08;;;;;;;4.77;2.33;;;;;;;;;;5067909;28;20399;-59
2022/05/25 09:49:34;;;;;;;4.70;2.47;;;;;;;;;;5065085;28;20048;-59
2022/05/25 09:52:03;;;;;;;8.37;2.70;;;;;;;;;;5059854;28;20037;-59
2022/05/25 09:54:32;;;;;;;6.83;3.20;;;;;;;;;;5066147;28;20088;-59
2022/05/25 09:57:10;;;;;;;5.77;2.40;;;;;;;;;;5062821;28;20048;-60
2022/05/25 09:59:51;;;;;;;7.77;3.27;;;;;;;;;;5067250;28;20102;-60
2022/05/25 10:02:35;;;;;;;7.47;2.97;;;;;;;;;;5068207;28;20045;-60
2022/05/25 10:05:28;;;;;;;6.87;2.60;;;;;;;;;;5066352;28;20044;-59
2022/05/25 10:07:58;;;;;;;5.22;2.72;;;;;;;;;;5057515;28;20049;-59
2022/05/25 10:10:32;;;;;;;4.80;2.70;;;;;;;;;;5055425;28;20124;-60
2022/05/25 10:13:13;;;;;;;7.10;2.80;;;;;;;;;;5050103;28;20047;-59
2022/05/25 10:15:39;;;;;;;4.90;2.00;;;;;;;;;;5065560;28;20469;-60
2022/05/25 10:18:05;;;;;;;4.47;1.97;;;;;;;;;;5054203;28;20111;-59
2022/05/25 10:20:34;;;;;;;4.63;1.90;;;;;;;;;;5066625;28;20080;-59
2022/05/25 10:23:19;;;;;;;5.00;1.83;;;;;;;;;;5067742;28;20040;-60
2022/05/25 10:25:45;;;;;;;4.43;1.80;;;;;;;;;;5058696;28;20510;-60
2022/05/25 10:28:29;;;;;;;5.60;2.10;;;;;;;;;;5068575;28;20059;-60
2022/05/25 10:36:58;;;;;;;10.67;2.30;;;;;;;;;;5060155;28;20049;-59
2022/05/25 10:39:30;;;;;;;4.57;2.40;;;;;;;;;;5059783;28;20462;-60
2022/05/25 10:42:11;;;;;;;6.80;1.70;;;;;;;;;;5066460;28;20525;-60
2022/05/25 10:44:37;;;;;;;5.00;1.80;;;;;;;;;;5065956;28;20049;-59
2022/05/25 10:47:03;;;;;;;1.93;1.20;;;;;;;;;;5065633;28;20402;-60
2022/05/25 10:49:29;;;;;;;9.00;1.87;;;;;;;;;;5060822;28;20094;-60
2022/05/25 10:52:05;;;;;;;5.97;2.10;;;;;;;;;;5055422;28;20376;-60
2022/05/25 10:54:47;;;;;;;3.87;2.00;;;;;;;;;;5063734;28;20101;-59
2022/05/25 10:57:32;;;;;;;3.75;1.80;;;;;;;;;;5061384;28;20121;-60
2022/05/25 11:00:19;;;;;;;5.33;2.00;;;;;;;;;;5054334;28;20055;-60
2022/05/25 11:02:55;;;;;;;2.80;1.60;;;;;;;;;;5047019;28;20049;-60
2022/05/25 11:05:40;;;;;;;5.17;2.30;;;;;;;;;;5061893;28;20487;-60
2022/05/25 11:08:30;;;;;;;7.27;2.93;;;;;;;;;;5056423;28;20043;-60
2022/05/25 11:10:58;;;;;;;6.67;2.10;;;;;;;;;;5055536;28;20044;-60
2022/05/25 11:13:43;;;;;;;3.70;2.10;;;;;;;;;;5065307;28;20410;-60
2022/05/25 11:16:29;;;;;;;6.33;2.17;;;;;;;;;;5067843;28;20055;-60
2022/05/25 11:18:58;;;;;;;9.73;2.67;;;;;;;;;;5048274;28;20048;-59
2022/05/25 11:21:43;;;;;;;7.00;2.83;;;;;;;;;;5066663;28;20045;-60
2022/05/25 11:24:15;;;;;;;4.77;2.27;;;;;;;;;;5061033;28;20056;-59
2022/05/25 11:26:54;;;;;;;6.27;2.40;;;;;;;;;;5064119;28;20044;-59
2022/05/25 11:29:23;;;;;;;6.80;2.53;;;;;;;;;;5060255;28;20044;-60
2022/05/25 11:32:07;;;;;;;10.23;4.07;;;;;;;;;;5061715;28;20048;-59
2022/05/25 11:35:04;;;;;;;5.90;3.30;;;;;;;;;;5066166;28;20379;-60
2022/05/25 11:37:42;;;;;;;6.10;3.57;;;;;;;;;;5045709;28;20063;-60
2022/05/25 11:40:27;;;;;;;6.87;3.90;;;;;;;;;;5069660;28;20053;-59
2022/05/25 11:43:01;;;;;;;8.63;4.20;;;;;;;;;;5070701;28;20048;-59
2022/05/25 11:45:38;;;;;;;5.67;4.20;;;;;;;;;;5055954;28;20052;-59
2022/05/25 11:48:13;;;;;;;9.43;4.40;;;;;;;;;;5059797;28;20051;-60
2022/05/25 11:50:54;;;;;;;6.53;4.73;;;;;;;;;;5055812;28;20115;-60
2022/05/25 11:53:32;;;;;;;7.50;3.37;;;;;;;;;;5070415;28;20041;-60
2022/05/25 11:56:05;;;;;;;4.73;2.90;;;;;;;;;;5062168;28;20036;-59
2022/05/25 11:58:50;;;;;;;5.28;2.55;;;;;;;;;;5068873;28;20152;-59
2022/05/25 12:01:19;;;;;;;3.87;1.63;;;;;;;;;;5059763;28;20495;-59
2022/05/25 12:04:04;;;;;;;2.80;1.43;;;;;;;;;;5052579;28;20114;-60
2022/05/25 12:06:39;;;;;;;6.73;2.07;;;;;;;;;;5054491;28;20044;-59
2022/05/25 12:09:24;;;;;;;10.60;2.33;;;;;;;;;;5065945;28;20053;-59
2022/05/25 12:11:55;;;;;;;5.67;2.00;;;;;;;;;;5058451;28;20053;-59
2022/05/25 12:14:24;;;;;;;6.30;2.60;;;;;;;;;;5069671;28;20494;-59
2022/05/25 12:16:52;;;;;;;4.30;1.97;;;;;;;;;;5069715;28;20060;-60
2022/05/25 12:19:20;;;;;;;4.20;2.23;;;;;;;;;;5070393;28;20040;-60
2022/05/25 12:21:49;;;;;;;5.93;3.17;;;;;;;;;;5069091;28;20265;-60
2022/05/25 12:24:20;;;;;;;5.47;2.37;;;;;;;;;;5070902;28;20055;-59
2022/05/25 12:26:46;;;;;;;6.27;2.37;;;;;;;;;;5070548;28;20036;-60
2022/05/25 12:29:23;;;;;;;5.30;1.80;;;;;;;;;;5067112;28;20048;-59
2022/05/25 12:31:52;;;;;;;9.77;3.33;;;;;;;;;;5069032;28;20062;-59
2022/05/25 12:34:21;;;;;;;4.33;1.40;;;;;;;;;;5062710;28;20556;-60
2022/05/25 12:36:48;;;;;;;5.60;1.87;;;;;;;;;;5058277;28;20072;-60
2022/05/25 12:39:13;;;;;;;6.20;1.30;;;;;;;;;;5070189;28;20155;-60
2022/05/25 12:41:40;;;;;;;3.80;1.40;;;;;;;;;;5070102;28;20474;-59
2022/05/25 12:49:40;;;;;;;6.43;1.13;;;;;;;;;;5068872;28;20052;-60
2022/05/25 12:52:24;;;;;;;3.87;1.10;;;;;;;;;;5069769;28;20032;-60
2022/05/25 12:54:50;;;;;;;7.07;1.30;;;;;;;;;;5058283;28;20052;-59
2022/05/25 12:57:24;;;;;;;6.40;1.00;;;;;;;;;;5048750;28;20538;-59
2022/05/25 12:59:51;;;;;;;6.23;1.40;;;;;;;;;;5051972;28;20427;-59
2022/05/25 13:02:19;;;;;;;6.40;1.40;;;;;;;;;;5069884;28;20044;-59
2022/05/25 13:04:47;;;;;;;4.03;1.30;;;;;;;;;;5065473;28;20411;-60
2022/05/25 13:07:19;;;;;;;3.43;1.00;;;;;;;;;;5050137;28;20852;-60
2022/05/25 13:09:45;;;;;;;6.75;0.90;;;;;;;;;;5050386;28;20103;-59
2022/05/25 13:12:47;;;;;;;4.80;1.20;;;;;;;;;;5050596;28;20041;-60
2022/05/25 13:15:17;;;;;;;5.97;1.47;;;;;;;;;;5017816;28;20800;-60
2022/05/25 13:17:46;;;;;;;8.20;1.53;;;;;;;;;;5042776;28;20144;-60
2022/05/25 13:20:16;;;;;;;4.03;1.00;;;;;;;;;;5050066;28;20045;-60
2022/05/25 13:22:42;;;;;;;6.20;0.90;;;;;;;;;;5070065;28;20055;-60
2022/05/25 13:25:15;;;;;;;6.60;0.97;;;;;;;;;;5069772;28;20048;-60
2022/05/25 13:27:41;;;;;;;;;;;;;;;;;;5070324;28;20506;-59
2022/05/25 13:30:07;;;;;;;3.65;0.80;;;;;;;;;;5069846;28;19966;-59
2022/05/25 13:32:35;;;;;;;3.87;1.30;;;;;;;;;;5057119;28;20115;-59
2022/05/25 13:35:21;;;;;;;3.47;0.73;;;;;;;;;;5049684;28;20045;-59
2022/05/25 13:37:50;;;;;;;3.43;0.80;;;;;;;;;;5049757;28;20499;-60
2022/05/25 13:40:16;;;;;;;2.42;0.80;;;;;;;;;;5050278;28;20526;-60
2022/05/25 13:42:44;;;;;;;6.23;0.87;;;;;;;;;;5054854;28;20048;-60
2022/05/25 13:45:16;;;;;;;2.80;0.97;;;;;;;;;;5063489;28;20076;-60
2022/05/25 13:47:50;;;;;;;4.10;0.90;;;;;;;;;;5055669;28;20554;-60
2022/05/25 13:50:28;;;;;;;5.57;1.23;;;;;;;;;;5049416;28;20099;-60
2022/05/25 13:52:54;;;;;;;2.27;0.60;;;;;;;;;;5049377;28;20140;-60
2022/05/25 13:55:39;;;;;;;4.80;1.07;;;;;;;;;;5049390;28;20045;-60
2022/05/25 13:58:13;;;;;;;4.27;0.67;;;;;;;;;;5049761;28;20047;-60
2022/05/25 14:00:47;;;;;;;3.93;1.00;;;;;;;;;;5049327;28;20045;-60
2022/05/25 14:03:19;;;;;;;4.83;1.07;;;;;;;;;;5049137;28;20051;-59
2022/05/25 14:05:45;;;;;;;2.43;0.80;;;;;;;;;;5049042;28;20124;-59
2022/05/25 14:08:14;;;;;;;3.20;0.63;;;;;;;;;;5049063;28;20577;-59
2022/05/25 14:10:58;;;;;;;4.33;0.97;;;;;;;;;;5049111;28;20055;-59
2022/05/25 14:13:27;;;;;;;2.67;0.90;;;;;;;;;;5049058;28;20136;-59
2022/05/25 14:16:08;;;;;;;4.00;1.07;;;;;;;;;;5049001;28;20055;-59
2022/05/25 14:18:46;;;;;;;3.73;0.77;;;;;;;;;;5048715;28;20049;-59
2022/05/25 14:21:28;;;;;;;7.60;1.00;;;;;;;;;;5054464;28;20494;-58
2022/05/25 14:23:54;;;;;;;4.60;1.20;;;;;;;;;;5053170;28;20045;-60
2022/05/25 14:26:28;;;;;;;6.03;1.00;;;;;;;;;;5068973;28;20051;-59
2022/05/25 14:28:54;;;;;;;3.87;0.87;;;;;;;;;;5068484;28;20056;-59
2022/05/25 14:31:21;;;;;;;6.93;0.93;;;;;;;;;;5068915;28;20052;-59
2022/05/25 14:33:48;;;;;;;4.07;1.20;;;;;;;;;;5068853;28;20417;-59
2022/05/25 14:36:16;;;;;;;5.33;1.20;;;;;;;;;;5068691;28;20210;-59
2022/05/25 14:38:43;;;;;;;3.73;1.00;;;;;;;;;;5068860;28;20047;-60
2022/05/25 14:41:30;;;;;;;8.43;1.00;;;;;;;;;;5059675;28;20151;-60
2022/05/25 14:43:56;;;;;;;6.93;1.53;;;;;;;;;;5056368;28;20044;-60
2022/05/25 14:46:25;;;;;;;5.20;1.40;;;;;;;;;;5061438;28;20040;-59
2022/05/25 14:48:53;;;;;;;4.17;1.20;;;;;;;;;;5067557;28;20047;-59
2022/05/25 14:51:20;;;;;;;3.27;1.27;;;;;;;;;;5062500;28;20105;-60
2022/05/25 14:53:47;;;;;;;4.60;1.00;;;;;;;;;;5055547;28;20162;-59
2022/05/25 14:56:20;;;;;;;6.10;1.97;;;;;;;;;;5063623;28;20160;-60
2022/05/25 14:58:50;;;;;;;6.47;1.27;;;;;;;;;;5060820;28;20041;-60
2022/05/25 15:01:26;;;;;;;5.03;0.90;;;;;;;;;;5058812;28;20048;-60
2022/05/25 15:03:54;;;;;;;4.20;1.03;;;;;;;;;;5054026;28;20063;-59
2022/05/25 15:06:21;;;;;;;3.93;1.40;;;;;;;;;;5050661;28;20052;-59
2022/05/25 15:08:54;;;;;;;5.20;1.60;;;;;;;;;;5059046;28;20571;-59
2022/05/25 15:11:20;;;;;;;4.80;1.60;;;;;;;;;;5048302;28;20057;-59
2022/05/25 15:19:24;;;;;;;7.10;1.43;;;;;;;;;;5048154;28;20053;-59
2022/05/25 15:21:50;;;;;;;8.00;1.70;;;;;;;;;;5062673;28;20593;-59
2022/05/25 15:24:17;;;;;;;3.53;1.23;;;;;;;;;;5067590;28;20118;-59